sensor_id;sensor_type;location;lat;lon;timestamp;P1;durP1;ratioP1;P2;durP2;ratioP2
30539;SDS011;17321;46.312;4.776;2023-02-21T00:01:34;21.35;;;10.52;;
30539;SDS011;17321;46.312;4.776;2023-02-21T00:04:18;19.80;;;10.43;;
30539;SDS011;17321;46.312;4.776;2023-02-21T00:07:03;17.55;;;10.43;;
30539;SDS011;17321;46.312;4.776;2023-02-21T00:09:48;17.73;;;10.43;;
30539;SDS011;17321;46.312;4.776;2023-02-21T00:12:33;22.75;;;10.55;;
30539;SDS011;17321;46.312;4.776;2023-02-21T00:15:17;21.30;;;11.50;;
30539;SDS011;17321;46.312;4.776;2023-02-21T00:18:02;20.83;;;11.18;;
30539;SDS011;17321;46.312;4.776;2023-02-21T00:20:47;17.40;;;10.38;;
30539;SDS011;17321;46.312;4.776;2023-02-21T00:23:35;14.27;;;10.02;;
30539;SDS011;17321;46.312;4.776;2023-02-21T00:26:20;20.40;;;9.88;;
30539;SDS011;17321;46.312;4.776;2023-02-21T00:29:05;21.13;;;9.75;;
30539;SDS011;17321;46.312;4.776;2023-02-21T00:31:50;17.80;;;9.63;;
30539;SDS011;17321;46.312;4.776;2023-02-21T00:34:35;16.88;;;9.60;;
30539;SDS011;17321;46.312;4.776;2023-02-21T00:37:19;18.17;;;11.00;;
30539;SDS011;17321;46.312;4.776;2023-02-21T00:40:04;16.80;;;9.68;;
30539;SDS011;17321;46.312;4.776;2023-02-21T00:42:49;15.73;;;9.40;;
30539;SDS011;17321;46.312;4.776;2023-02-21T00:45:33;15.98;;;9.45;;
30539;SDS011;17321;46.312;4.776;2023-02-21T00:48:19;18.10;;;9.75;;
30539;SDS011;17321;46.312;4.776;2023-02-21T00:51:03;15.82;;;8.80;;
30539;SDS011;17321;46.312;4.776;2023-02-21T00:53:48;18.65;;;9.73;;
30539;SDS011;17321;46.312;4.776;2023-02-21T00:56:33;15.63;;;8.63;;
30539;SDS011;17321;46.312;4.776;2023-02-21T00:59:17;17.77;;;8.75;;
30539;SDS011;17321;46.312;4.776;2023-02-21T01:02:02;15.30;;;9.73;;
30539;SDS011;17321;46.312;4.776;2023-02-21T01:04:47;19.38;;;10.20;;
30539;SDS011;17321;46.312;4.776;2023-02-21T01:07:31;16.05;;;8.57;;
30539;SDS011;17321;46.312;4.776;2023-02-21T01:10:16;17.95;;;9.50;;
30539;SDS011;17321;46.312;4.776;2023-02-21T01:13:01;17.50;;;9.60;;
30539;SDS011;17321;46.312;4.776;2023-02-21T01:15:46;18.60;;;8.93;;
30539;SDS011;17321;46.312;4.776;2023-02-21T01:18:30;20.88;;;9.25;;
30539;SDS011;17321;46.312;4.776;2023-02-21T01:21:16;13.07;;;8.70;;
30539;SDS011;17321;46.312;4.776;2023-02-21T01:24:01;16.15;;;9.15;;
30539;SDS011;17321;46.312;4.776;2023-02-21T01:26:46;13.90;;;8.77;;
30539;SDS011;17321;46.312;4.776;2023-02-21T01:29:31;15.27;;;10.05;;
30539;SDS011;17321;46.312;4.776;2023-02-21T01:32:15;15.82;;;8.98;;
30539;SDS011;17321;46.312;4.776;2023-02-21T01:35:00;19.40;;;9.27;;
30539;SDS011;17321;46.312;4.776;2023-02-21T01:37:45;16.00;;;9.80;;
30539;SDS011;17321;46.312;4.776;2023-02-21T01:40:30;15.23;;;9.23;;
30539;SDS011;17321;46.312;4.776;2023-02-21T01:43:15;15.57;;;8.15;;
30539;SDS011;17321;46.312;4.776;2023-02-21T01:46:00;14.68;;;9.05;;
30539;SDS011;17321;46.312;4.776;2023-02-21T01:48:45;17.00;;;9.18;;
30539;SDS011;17321;46.312;4.776;2023-02-21T01:51:33;18.70;;;9.88;;
30539;SDS011;17321;46.312;4.776;2023-02-21T01:54:19;17.10;;;9.93;;
30539;SDS011;17321;46.312;4.776;2023-02-21T01:57:05;15.00;;;8.65;;
30539;SDS011;17321;46.312;4.776;2023-02-21T01:59:51;18.38;;;9.90;;
30539;SDS011;17321;46.312;4.776;2023-02-21T02:02:39;18.05;;;10.00;;
30539;SDS011;17321;46.312;4.776;2023-02-21T02:05:25;18.20;;;9.95;;
30539;SDS011;17321;46.312;4.776;2023-02-21T02:08:11;14.93;;;9.85;;
30539;SDS011;17321;46.312;4.776;2023-02-21T02:11:18;24.63;;;11.88;;
30539;SDS011;17321;46.312;4.776;2023-02-21T02:14:13;14.82;;;9.82;;
30539;SDS011;17321;46.312;4.776;2023-02-21T02:22:06;16.00;;;9.60;;
30539;SDS011;17321;46.312;4.776;2023-02-21T02:40:36;16.60;;;9.82;;
30539;SDS011;17321;46.312;4.776;2023-02-21T02:48:30;21.52;;;9.90;;
30539;SDS011;17321;46.312;4.776;2023-02-21T02:50:58;24.45;;;10.07;;
30539;SDS011;17321;46.312;4.776;2023-02-21T02:53:27;15.70;;;9.30;;
30539;SDS011;17321;46.312;4.776;2023-02-21T02:56:01;14.63;;;9.27;;
30539;SDS011;17321;46.312;4.776;2023-02-21T02:58:29;19.80;;;10.57;;
30539;SDS011;17321;46.312;4.776;2023-02-21T03:01:01;18.02;;;8.93;;
30539;SDS011;17321;46.312;4.776;2023-02-21T03:06:18;16.30;;;9.02;;
30539;SDS011;17321;46.312;4.776;2023-02-21T03:11:28;16.87;;;9.33;;
30539;SDS011;17321;46.312;4.776;2023-02-21T03:13:57;18.38;;;9.48;;
30539;SDS011;17321;46.312;4.776;2023-02-21T03:16:31;17.27;;;9.50;;
30539;SDS011;17321;46.312;4.776;2023-02-21T03:19:15;14.63;;;9.07;;
30539;SDS011;17321;46.312;4.776;2023-02-21T03:21:51;16.25;;;9.35;;
30539;SDS011;17321;46.312;4.776;2023-02-21T03:24:18;15.63;;;10.52;;
30539;SDS011;17321;46.312;4.776;2023-02-21T03:26:47;18.45;;;9.73;;
30539;SDS011;17321;46.312;4.776;2023-02-21T03:29:14;17.80;;;9.13;;
30539;SDS011;17321;46.312;4.776;2023-02-21T03:31:45;17.55;;;8.77;;
30539;SDS011;17321;46.312;4.776;2023-02-21T03:34:13;16.63;;;9.05;;
30539;SDS011;17321;46.312;4.776;2023-02-21T03:36:39;18.15;;;9.02;;
30539;SDS011;17321;46.312;4.776;2023-02-21T03:39:06;17.25;;;8.77;;
30539;SDS011;17321;46.312;4.776;2023-02-21T03:41:32;16.77;;;9.60;;
30539;SDS011;17321;46.312;4.776;2023-02-21T03:43:58;11.65;;;8.80;;
30539;SDS011;17321;46.312;4.776;2023-02-21T03:46:24;16.48;;;8.73;;
30539;SDS011;17321;46.312;4.776;2023-02-21T03:48:50;15.52;;;9.38;;
30539;SDS011;17321;46.312;4.776;2023-02-21T03:51:16;17.40;;;9.35;;
30539;SDS011;17321;46.312;4.776;2023-02-21T03:53:43;14.63;;;9.27;;
30539;SDS011;17321;46.312;4.776;2023-02-21T03:56:09;17.83;;;9.77;;
30539;SDS011;17321;46.312;4.776;2023-02-21T03:58:35;13.30;;;8.75;;
30539;SDS011;17321;46.312;4.776;2023-02-21T04:01:01;14.60;;;8.73;;
30539;SDS011;17321;46.312;4.776;2023-02-21T04:03:29;16.98;;;10.05;;
30539;SDS011;17321;46.312;4.776;2023-02-21T04:05:55;17.98;;;9.52;;
30539;SDS011;17321;46.312;4.776;2023-02-21T04:08:21;16.88;;;9.05;;
30539;SDS011;17321;46.312;4.776;2023-02-21T04:10:47;17.35;;;8.88;;
30539;SDS011;17321;46.312;4.776;2023-02-21T04:13:13;14.57;;;9.20;;
30539;SDS011;17321;46.312;4.776;2023-02-21T04:15:39;20.35;;;10.18;;
30539;SDS011;17321;46.312;4.776;2023-02-21T04:18:05;14.55;;;9.68;;
30539;SDS011;17321;46.312;4.776;2023-02-21T04:20:31;15.50;;;9.02;;
30539;SDS011;17321;46.312;4.776;2023-02-21T04:22:58;24.25;;;10.27;;
30539;SDS011;17321;46.312;4.776;2023-02-21T04:25:24;18.92;;;10.65;;
30539;SDS011;17321;46.312;4.776;2023-02-21T04:27:50;17.85;;;10.35;;
30539;SDS011;17321;46.312;4.776;2023-02-21T04:30:16;18.05;;;11.02;;
30539;SDS011;17321;46.312;4.776;2023-02-21T04:32:42;16.45;;;10.85;;
30539;SDS011;17321;46.312;4.776;2023-02-21T04:35:09;16.15;;;10.10;;
30539;SDS011;17321;46.312;4.776;2023-02-21T04:37:35;31.52;;;12.95;;
30539;SDS011;17321;46.312;4.776;2023-02-21T04:40:01;21.73;;;12.40;;
30539;SDS011;17321;46.312;4.776;2023-02-21T04:42:27;22.77;;;13.05;;
30539;SDS011;17321;46.312;4.776;2023-02-21T04:44:53;26.65;;;14.35;;
30539;SDS011;17321;46.312;4.776;2023-02-21T04:47:19;21.73;;;14.23;;
30539;SDS011;17321;46.312;4.776;2023-02-21T04:49:45;22.23;;;13.88;;
30539;SDS011;17321;46.312;4.776;2023-02-21T04:52:16;26.75;;;14.13;;
30539;SDS011;17321;46.312;4.776;2023-02-21T04:54:44;21.02;;;12.73;;
30539;SDS011;17321;46.312;4.776;2023-02-21T04:57:11;21.98;;;12.50;;
30539;SDS011;17321;46.312;4.776;2023-02-21T04:59:37;21.70;;;12.95;;
30539;SDS011;17321;46.312;4.776;2023-02-21T05:02:03;19.02;;;10.48;;
30539;SDS011;17321;46.312;4.776;2023-02-21T05:04:30;14.30;;;8.27;;
30539;SDS011;17321;46.312;4.776;2023-02-21T05:06:59;14.98;;;9.55;;
30539;SDS011;17321;46.312;4.776;2023-02-21T05:09:25;14.27;;;11.00;;
30539;SDS011;17321;46.312;4.776;2023-02-21T05:11:51;19.13;;;11.48;;
30539;SDS011;17321;46.312;4.776;2023-02-21T05:14:17;21.67;;;10.85;;
30539;SDS011;17321;46.312;4.776;2023-02-21T05:16:44;20.27;;;10.77;;
30539;SDS011;17321;46.312;4.776;2023-02-21T05:19:10;20.23;;;10.45;;
30539;SDS011;17321;46.312;4.776;2023-02-21T05:21:36;16.13;;;10.48;;
30539;SDS011;17321;46.312;4.776;2023-02-21T05:24:03;17.02;;;11.52;;
30539;SDS011;17321;46.312;4.776;2023-02-21T05:26:32;23.38;;;13.05;;
30539;SDS011;17321;46.312;4.776;2023-02-21T05:28:59;22.50;;;11.48;;
30539;SDS011;17321;46.312;4.776;2023-02-21T05:31:25;22.67;;;12.05;;
30539;SDS011;17321;46.312;4.776;2023-02-21T05:33:51;20.00;;;11.93;;
30539;SDS011;17321;46.312;4.776;2023-02-21T05:36:17;16.73;;;11.57;;
30539;SDS011;17321;46.312;4.776;2023-02-21T05:38:45;16.60;;;10.70;;
30539;SDS011;17321;46.312;4.776;2023-02-21T05:41:11;22.08;;;11.07;;
30539;SDS011;17321;46.312;4.776;2023-02-21T05:43:37;19.33;;;10.85;;
30539;SDS011;17321;46.312;4.776;2023-02-21T05:46:03;20.35;;;11.23;;
30539;SDS011;17321;46.312;4.776;2023-02-21T05:48:30;17.92;;;10.73;;
30539;SDS011;17321;46.312;4.776;2023-02-21T05:50:56;15.60;;;9.70;;
30539;SDS011;17321;46.312;4.776;2023-02-21T05:53:22;15.63;;;10.57;;
30539;SDS011;17321;46.312;4.776;2023-02-21T05:55:48;17.67;;;11.38;;
30539;SDS011;17321;46.312;4.776;2023-02-21T05:58:14;22.15;;;11.43;;
30539;SDS011;17321;46.312;4.776;2023-02-21T06:00:40;19.77;;;11.57;;
30539;SDS011;17321;46.312;4.776;2023-02-21T06:03:06;18.42;;;11.05;;
30539;SDS011;17321;46.312;4.776;2023-02-21T06:05:32;17.60;;;10.70;;
30539;SDS011;17321;46.312;4.776;2023-02-21T06:07:59;21.77;;;12.30;;
30539;SDS011;17321;46.312;4.776;2023-02-21T06:10:25;18.73;;;11.80;;
30539;SDS011;17321;46.312;4.776;2023-02-21T06:12:51;19.58;;;10.80;;
30539;SDS011;17321;46.312;4.776;2023-02-21T06:15:17;17.50;;;11.30;;
30539;SDS011;17321;46.312;4.776;2023-02-21T06:17:43;20.08;;;12.27;;
30539;SDS011;17321;46.312;4.776;2023-02-21T06:20:10;18.48;;;11.70;;
30539;SDS011;17321;46.312;4.776;2023-02-21T06:22:38;24.48;;;13.20;;
30539;SDS011;17321;46.312;4.776;2023-02-21T06:25:04;20.15;;;13.00;;
30539;SDS011;17321;46.312;4.776;2023-02-21T06:27:31;31.88;;;12.52;;
30539;SDS011;17321;46.312;4.776;2023-02-21T06:29:57;27.10;;;14.05;;
30539;SDS011;17321;46.312;4.776;2023-02-21T06:32:23;28.20;;;13.45;;
30539;SDS011;17321;46.312;4.776;2023-02-21T06:34:49;25.40;;;12.35;;
30539;SDS011;17321;46.312;4.776;2023-02-21T06:37:16;26.15;;;13.57;;
30539;SDS011;17321;46.312;4.776;2023-02-21T06:39:42;24.65;;;14.18;;
30539;SDS011;17321;46.312;4.776;2023-02-21T06:42:17;28.75;;;14.00;;
30539;SDS011;17321;46.312;4.776;2023-02-21T06:44:44;29.63;;;13.48;;
30539;SDS011;17321;46.312;4.776;2023-02-21T06:47:10;27.15;;;13.82;;
30539;SDS011;17321;46.312;4.776;2023-02-21T06:49:37;23.55;;;13.38;;
30539;SDS011;17321;46.312;4.776;2023-02-21T06:52:03;25.90;;;14.20;;
30539;SDS011;17321;46.312;4.776;2023-02-21T06:54:29;27.98;;;15.07;;
30539;SDS011;17321;46.312;4.776;2023-02-21T06:56:55;28.58;;;14.57;;
30539;SDS011;17321;46.312;4.776;2023-02-21T06:59:23;25.02;;;13.27;;
30539;SDS011;17321;46.312;4.776;2023-02-21T07:01:49;25.63;;;13.57;;
30539;SDS011;17321;46.312;4.776;2023-02-21T07:04:15;23.60;;;14.23;;
30539;SDS011;17321;46.312;4.776;2023-02-21T07:06:41;26.67;;;13.27;;
30539;SDS011;17321;46.312;4.776;2023-02-21T07:09:07;24.45;;;12.70;;
30539;SDS011;17321;46.312;4.776;2023-02-21T07:11:33;22.92;;;12.85;;
30539;SDS011;17321;46.312;4.776;2023-02-21T07:14:00;20.60;;;12.63;;
30539;SDS011;17321;46.312;4.776;2023-02-21T07:16:26;21.67;;;11.35;;
30539;SDS011;17321;46.312;4.776;2023-02-21T07:18:52;23.92;;;11.93;;
30539;SDS011;17321;46.312;4.776;2023-02-21T07:21:19;27.67;;;13.25;;
30539;SDS011;17321;46.312;4.776;2023-02-21T07:23:46;29.70;;;15.23;;
30539;SDS011;17321;46.312;4.776;2023-02-21T07:26:12;22.92;;;12.57;;
30539;SDS011;17321;46.312;4.776;2023-02-21T07:28:38;35.75;;;14.48;;
30539;SDS011;17321;46.312;4.776;2023-02-21T07:31:05;23.13;;;13.02;;
30539;SDS011;17321;46.312;4.776;2023-02-21T07:33:32;24.10;;;13.43;;
30539;SDS011;17321;46.312;4.776;2023-02-21T07:35:58;24.63;;;14.10;;
30539;SDS011;17321;46.312;4.776;2023-02-21T07:38:25;23.92;;;14.98;;
30539;SDS011;17321;46.312;4.776;2023-02-21T07:40:59;22.20;;;13.90;;
30539;SDS011;17321;46.312;4.776;2023-02-21T07:43:25;22.55;;;14.90;;
30539;SDS011;17321;46.312;4.776;2023-02-21T07:45:52;23.77;;;14.05;;
30539;SDS011;17321;46.312;4.776;2023-02-21T07:48:18;21.42;;;14.45;;
30539;SDS011;17321;46.312;4.776;2023-02-21T07:50:44;21.48;;;14.63;;
30539;SDS011;17321;46.312;4.776;2023-02-21T07:53:11;22.77;;;13.95;;
30539;SDS011;17321;46.312;4.776;2023-02-21T07:55:37;23.15;;;14.60;;
30539;SDS011;17321;46.312;4.776;2023-02-21T07:58:04;32.30;;;14.52;;
30539;SDS011;17321;46.312;4.776;2023-02-21T08:00:30;38.88;;;15.75;;
30539;SDS011;17321;46.312;4.776;2023-02-21T08:02:57;24.05;;;14.90;;
30539;SDS011;17321;46.312;4.776;2023-02-21T08:05:23;21.98;;;14.60;;
30539;SDS011;17321;46.312;4.776;2023-02-21T08:07:50;26.08;;;14.60;;
30539;SDS011;17321;46.312;4.776;2023-02-21T08:10:23;27.92;;;17.48;;
30539;SDS011;17321;46.312;4.776;2023-02-21T08:12:49;39.47;;;18.85;;
30539;SDS011;17321;46.312;4.776;2023-02-21T08:15:16;39.10;;;21.17;;
30539;SDS011;17321;46.312;4.776;2023-02-21T08:17:42;36.90;;;20.92;;
30539;SDS011;17321;46.312;4.776;2023-02-21T08:20:08;37.38;;;21.95;;
30539;SDS011;17321;46.312;4.776;2023-02-21T08:22:37;34.88;;;19.92;;
30539;SDS011;17321;46.312;4.776;2023-02-21T08:25:03;38.22;;;20.70;;
30539;SDS011;17321;46.312;4.776;2023-02-21T08:27:29;37.47;;;20.98;;
30539;SDS011;17321;46.312;4.776;2023-02-21T08:29:55;34.67;;;20.75;;
30539;SDS011;17321;46.312;4.776;2023-02-21T08:32:22;41.42;;;20.88;;
30539;SDS011;17321;46.312;4.776;2023-02-21T08:34:48;29.10;;;19.27;;
30539;SDS011;17321;46.312;4.776;2023-02-21T08:37:14;45.40;;;22.48;;
30539;SDS011;17321;46.312;4.776;2023-02-21T08:39:45;35.85;;;21.88;;
30539;SDS011;17321;46.312;4.776;2023-02-21T08:42:11;46.78;;;24.77;;
30539;SDS011;17321;46.312;4.776;2023-02-21T08:44:37;46.53;;;25.77;;
30539;SDS011;17321;46.312;4.776;2023-02-21T08:47:03;43.85;;;26.05;;
30539;SDS011;17321;46.312;4.776;2023-02-21T08:49:29;45.03;;;25.00;;
30539;SDS011;17321;46.312;4.776;2023-02-21T08:51:56;42.70;;;25.77;;
30539;SDS011;17321;46.312;4.776;2023-02-21T08:54:22;46.80;;;26.88;;
30539;SDS011;17321;46.312;4.776;2023-02-21T08:56:48;44.80;;;26.15;;
30539;SDS011;17321;46.312;4.776;2023-02-21T08:59:15;49.00;;;26.50;;
30539;SDS011;17321;46.312;4.776;2023-02-21T09:01:41;41.63;;;25.45;;
30539;SDS011;17321;46.312;4.776;2023-02-21T09:04:07;38.67;;;25.30;;
30539;SDS011;17321;46.312;4.776;2023-02-21T09:06:33;42.05;;;25.23;;
30539;SDS011;17321;46.312;4.776;2023-02-21T09:08:59;41.97;;;24.27;;
30539;SDS011;17321;46.312;4.776;2023-02-21T09:11:25;43.45;;;26.13;;
30539;SDS011;17321;46.312;4.776;2023-02-21T09:13:51;43.03;;;25.33;;
30539;SDS011;17321;46.312;4.776;2023-02-21T09:16:19;47.95;;;28.88;;
30539;SDS011;17321;46.312;4.776;2023-02-21T09:18:52;59.75;;;30.45;;
30539;SDS011;17321;46.312;4.776;2023-02-21T09:21:18;71.80;;;34.40;;
30539;SDS011;17321;46.312;4.776;2023-02-21T09:23:44;77.53;;;34.75;;
30539;SDS011;17321;46.312;4.776;2023-02-21T09:26:10;78.97;;;35.13;;
30539;SDS011;17321;46.312;4.776;2023-02-21T09:28:36;67.57;;;36.63;;
30539;SDS011;17321;46.312;4.776;2023-02-21T09:31:07;80.25;;;37.03;;
30539;SDS011;17321;46.312;4.776;2023-02-21T09:33:35;56.70;;;32.92;;
30539;SDS011;17321;46.312;4.776;2023-02-21T09:36:05;65.95;;;35.30;;
30539;SDS011;17321;46.312;4.776;2023-02-21T09:38:31;71.00;;;35.42;;
30539;SDS011;17321;46.312;4.776;2023-02-21T09:40:59;76.00;;;35.83;;
30539;SDS011;17321;46.312;4.776;2023-02-21T09:45:59;107.15;;;42.38;;
30539;SDS011;17321;46.312;4.776;2023-02-21T09:48:27;78.15;;;37.78;;
30539;SDS011;17321;46.312;4.776;2023-02-21T09:50:57;88.63;;;40.97;;
30539;SDS011;17321;46.312;4.776;2023-02-21T09:53:41;82.70;;;39.83;;
30539;SDS011;17321;46.312;4.776;2023-02-21T09:56:11;79.63;;;38.70;;
30539;SDS011;17321;46.312;4.776;2023-02-21T09:58:40;82.38;;;39.92;;
30539;SDS011;17321;46.312;4.776;2023-02-21T10:01:12;85.97;;;39.97;;
30539;SDS011;17321;46.312;4.776;2023-02-21T10:03:45;89.22;;;41.08;;
30539;SDS011;17321;46.312;4.776;2023-02-21T10:16:47;86.25;;;40.28;;
30539;SDS011;17321;46.312;4.776;2023-02-21T10:19:20;82.38;;;39.10;;
30539;SDS011;17321;46.312;4.776;2023-02-21T10:21:51;75.50;;;39.13;;
30539;SDS011;17321;46.312;4.776;2023-02-21T10:24:20;81.57;;;38.70;;
30539;SDS011;17321;46.312;4.776;2023-02-21T10:29:26;73.23;;;38.30;;
30539;SDS011;17321;46.312;4.776;2023-02-21T10:31:56;73.57;;;37.55;;
30539;SDS011;17321;46.312;4.776;2023-02-21T10:34:27;67.82;;;36.78;;
30539;SDS011;17321;46.312;4.776;2023-02-21T10:36:54;70.80;;;37.47;;
30539;SDS011;17321;46.312;4.776;2023-02-21T10:39:31;75.10;;;41.22;;
30539;SDS011;17321;46.312;4.776;2023-02-21T10:41:59;74.13;;;40.40;;
30539;SDS011;17321;46.312;4.776;2023-02-21T10:44:29;93.30;;;44.33;;
30539;SDS011;17321;46.312;4.776;2023-02-21T10:47:05;84.45;;;44.33;;
30539;SDS011;17321;46.312;4.776;2023-02-21T10:52:08;79.32;;;42.90;;
30539;SDS011;17321;46.312;4.776;2023-02-21T10:54:34;71.28;;;41.38;;
30539;SDS011;17321;46.312;4.776;2023-02-21T10:57:01;81.00;;;43.10;;
30539;SDS011;17321;46.312;4.776;2023-02-21T10:59:32;84.78;;;44.28;;
30539;SDS011;17321;46.312;4.776;2023-02-21T11:02:00;76.15;;;43.10;;
30539;SDS011;17321;46.312;4.776;2023-02-21T11:04:31;83.95;;;45.45;;
30539;SDS011;17321;46.312;4.776;2023-02-21T11:07:00;83.30;;;44.60;;
30539;SDS011;17321;46.312;4.776;2023-02-21T11:09:33;72.38;;;43.55;;
30539;SDS011;17321;46.312;4.776;2023-02-21T11:14:27;79.25;;;43.25;;
30539;SDS011;17321;46.312;4.776;2023-02-21T11:17:03;81.97;;;45.45;;
30539;SDS011;17321;46.312;4.776;2023-02-21T11:19:40;73.70;;;43.05;;
30539;SDS011;17321;46.312;4.776;2023-02-21T11:22:06;76.63;;;42.72;;
30539;SDS011;17321;46.312;4.776;2023-02-21T11:24:33;73.57;;;42.15;;
30539;SDS011;17321;46.312;4.776;2023-02-21T11:27:00;66.13;;;39.85;;
30539;SDS011;17321;46.312;4.776;2023-02-21T11:29:26;68.10;;;40.83;;
30539;SDS011;17321;46.312;4.776;2023-02-21T11:31:52;67.47;;;40.65;;
30539;SDS011;17321;46.312;4.776;2023-02-21T11:34:18;68.50;;;41.85;;
30539;SDS011;17321;46.312;4.776;2023-02-21T11:36:46;67.82;;;40.60;;
30539;SDS011;17321;46.312;4.776;2023-02-21T11:39:17;68.88;;;40.30;;
30539;SDS011;17321;46.312;4.776;2023-02-21T11:41:45;63.67;;;40.17;;
30539;SDS011;17321;46.312;4.776;2023-02-21T11:44:25;65.22;;;40.20;;
30539;SDS011;17321;46.312;4.776;2023-02-21T11:46:55;65.00;;;40.63;;
30539;SDS011;17321;46.312;4.776;2023-02-21T11:51:56;65.20;;;40.83;;
30539;SDS011;17321;46.312;4.776;2023-02-21T11:54:25;61.53;;;39.08;;
30539;SDS011;17321;46.312;4.776;2023-02-21T12:02:32;59.75;;;37.88;;
30539;SDS011;17321;46.312;4.776;2023-02-21T12:07:16;60.47;;;38.80;;
30539;SDS011;17321;46.312;4.776;2023-02-21T12:15:21;53.30;;;37.33;;
30539;SDS011;17321;46.312;4.776;2023-02-21T12:21:10;56.20;;;36.38;;
30539;SDS011;17321;46.312;4.776;2023-02-21T12:23:17;58.60;;;35.95;;
30539;SDS011;17321;46.312;4.776;2023-02-21T12:25:59;54.83;;;37.17;;
30539;SDS011;17321;46.312;4.776;2023-02-21T12:31:23;63.45;;;36.13;;
30539;SDS011;17321;46.312;4.776;2023-02-21T12:36:47;55.10;;;34.92;;
30539;SDS011;17321;46.312;4.776;2023-02-21T12:42:01;49.78;;;32.97;;
30539;SDS011;17321;46.312;4.776;2023-02-21T12:47:37;52.22;;;33.55;;
30539;SDS011;17321;46.312;4.776;2023-02-21T13:00:11;44.63;;;31.88;;
30539;SDS011;17321;46.312;4.776;2023-02-21T13:02:49;49.22;;;29.60;;
30539;SDS011;17321;46.312;4.776;2023-02-21T13:05:18;42.08;;;28.05;;
30539;SDS011;17321;46.312;4.776;2023-02-21T13:07:48;38.95;;;26.98;;
30539;SDS011;17321;46.312;4.776;2023-02-21T13:15:20;37.47;;;27.52;;
30539;SDS011;17321;46.312;4.776;2023-02-21T13:17:58;39.72;;;27.83;;
30539;SDS011;17321;46.312;4.776;2023-02-21T13:20:26;39.88;;;26.60;;
30539;SDS011;17321;46.312;4.776;2023-02-21T13:28:42;46.28;;;29.20;;
30539;SDS011;17321;46.312;4.776;2023-02-21T13:31:43;45.45;;;30.40;;
30539;SDS011;17321;46.312;4.776;2023-02-21T13:34:06;44.58;;;29.77;;
30539;SDS011;17321;46.312;4.776;2023-02-21T13:39:19;46.92;;;30.65;;
30539;SDS011;17321;46.312;4.776;2023-02-21T13:41:52;41.63;;;28.92;;
30539;SDS011;17321;46.312;4.776;2023-02-21T13:44:41;43.30;;;29.23;;
30539;SDS011;17321;46.312;4.776;2023-02-21T13:47:10;43.67;;;28.85;;
30539;SDS011;17321;46.312;4.776;2023-02-21T13:49:42;36.92;;;26.45;;
30539;SDS011;17321;46.312;4.776;2023-02-21T13:57:32;35.05;;;25.23;;
30539;SDS011;17321;46.312;4.776;2023-02-21T13:59:58;34.67;;;26.00;;
30539;SDS011;17321;46.312;4.776;2023-02-21T14:02:28;36.40;;;26.33;;
30539;SDS011;17321;46.312;4.776;2023-02-21T14:07:40;37.38;;;27.00;;
30539;SDS011;17321;46.312;4.776;2023-02-21T14:10:15;41.08;;;25.80;;
30539;SDS011;17321;46.312;4.776;2023-02-21T14:12:43;38.65;;;27.33;;
30539;SDS011;17321;46.312;4.776;2023-02-21T14:15:10;41.20;;;27.48;;
30539;SDS011;17321;46.312;4.776;2023-02-21T14:17:37;36.97;;;27.52;;
30539;SDS011;17321;46.312;4.776;2023-02-21T14:20:04;35.33;;;26.88;;
30539;SDS011;17321;46.312;4.776;2023-02-21T14:22:30;39.17;;;27.10;;
30539;SDS011;17321;46.312;4.776;2023-02-21T14:25:04;38.00;;;26.98;;
30539;SDS011;17321;46.312;4.776;2023-02-21T14:27:31;37.30;;;24.92;;
30539;SDS011;17321;46.312;4.776;2023-02-21T14:34:54;36.58;;;26.10;;
30539;SDS011;17321;46.312;4.776;2023-02-21T14:37:23;36.05;;;25.05;;
30539;SDS011;17321;46.312;4.776;2023-02-21T14:40:32;39.75;;;25.35;;
30539;SDS011;17321;46.312;4.776;2023-02-21T14:45:48;35.20;;;25.50;;
30539;SDS011;17321;46.312;4.776;2023-02-21T14:51:07;40.70;;;25.45;;
30539;SDS011;17321;46.312;4.776;2023-02-21T14:58:37;44.47;;;25.65;;
30539;SDS011;17321;46.312;4.776;2023-02-21T15:01:12;34.22;;;25.13;;
30539;SDS011;17321;46.312;4.776;2023-02-21T15:03:43;38.00;;;26.45;;
30539;SDS011;17321;46.312;4.776;2023-02-21T15:06:12;36.30;;;25.35;;
30539;SDS011;17321;46.312;4.776;2023-02-21T15:08:46;38.78;;;25.13;;
30539;SDS011;17321;46.312;4.776;2023-02-21T15:11:33;33.47;;;24.88;;
30539;SDS011;17321;46.312;4.776;2023-02-21T15:14:21;33.22;;;25.02;;
30539;SDS011;17321;46.312;4.776;2023-02-21T15:16:50;34.45;;;23.73;;
30539;SDS011;17321;46.312;4.776;2023-02-21T15:19:24;34.53;;;25.93;;
30539;SDS011;17321;46.312;4.776;2023-02-21T15:22:05;34.72;;;25.23;;
30539;SDS011;17321;46.312;4.776;2023-02-21T15:24:31;32.95;;;23.52;;
30539;SDS011;17321;46.312;4.776;2023-02-21T15:27:10;33.83;;;23.02;;
30539;SDS011;17321;46.312;4.776;2023-02-21T15:29:38;40.55;;;25.30;;
30539;SDS011;17321;46.312;4.776;2023-02-21T15:32:04;46.85;;;24.83;;
30539;SDS011;17321;46.312;4.776;2023-02-21T15:34:40;41.15;;;24.63;;
30539;SDS011;17321;46.312;4.776;2023-02-21T15:39:39;32.65;;;24.75;;
30539;SDS011;17321;46.312;4.776;2023-02-21T15:42:07;38.33;;;24.80;;
30539;SDS011;17321;46.312;4.776;2023-02-21T15:47:31;31.88;;;22.90;;
30539;SDS011;17321;46.312;4.776;2023-02-21T15:49:59;37.08;;;24.45;;
30539;SDS011;17321;46.312;4.776;2023-02-21T15:52:37;37.00;;;25.17;;
30539;SDS011;17321;46.312;4.776;2023-02-21T15:58:31;41.42;;;25.15;;
30539;SDS011;17321;46.312;4.776;2023-02-21T16:00:36;37.28;;;25.10;;
30539;SDS011;17321;46.312;4.776;2023-02-21T16:05:47;34.72;;;23.02;;
30539;SDS011;17321;46.312;4.776;2023-02-21T16:08:13;31.50;;;22.33;;
30539;SDS011;17321;46.312;4.776;2023-02-21T16:10:41;33.20;;;23.23;;
30539;SDS011;17321;46.312;4.776;2023-02-21T16:13:08;34.00;;;23.33;;
30539;SDS011;17321;46.312;4.776;2023-02-21T16:15:34;34.83;;;22.42;;
30539;SDS011;17321;46.312;4.776;2023-02-21T16:18:03;36.50;;;22.92;;
30539;SDS011;17321;46.312;4.776;2023-02-21T16:20:37;36.38;;;22.52;;
30539;SDS011;17321;46.312;4.776;2023-02-21T16:28:21;37.35;;;23.63;;
30539;SDS011;17321;46.312;4.776;2023-02-21T16:30:47;42.08;;;24.10;;
30539;SDS011;17321;46.312;4.776;2023-02-21T16:33:13;31.63;;;23.52;;
30539;SDS011;17321;46.312;4.776;2023-02-21T16:35:39;35.83;;;22.95;;
30539;SDS011;17321;46.312;4.776;2023-02-21T16:38:06;31.95;;;24.35;;
30539;SDS011;17321;46.312;4.776;2023-02-21T16:40:33;34.47;;;22.80;;
30539;SDS011;17321;46.312;4.776;2023-02-21T16:43:00;35.85;;;23.38;;
30539;SDS011;17321;46.312;4.776;2023-02-21T16:45:27;37.13;;;23.45;;
30539;SDS011;17321;46.312;4.776;2023-02-21T16:47:57;34.35;;;22.98;;
30539;SDS011;17321;46.312;4.776;2023-02-21T16:50:29;35.72;;;24.33;;
30539;SDS011;17321;46.312;4.776;2023-02-21T16:52:55;40.17;;;24.70;;
30539;SDS011;17321;46.312;4.776;2023-02-21T16:55:22;36.05;;;24.58;;
30539;SDS011;17321;46.312;4.776;2023-02-21T16:57:48;39.03;;;22.98;;
30539;SDS011;17321;46.312;4.776;2023-02-21T17:00:15;31.85;;;23.20;;
30539;SDS011;17321;46.312;4.776;2023-02-21T17:02:43;39.95;;;23.83;;
30539;SDS011;17321;46.312;4.776;2023-02-21T17:05:09;33.10;;;22.75;;
30539;SDS011;17321;46.312;4.776;2023-02-21T17:07:36;39.10;;;26.83;;
30539;SDS011;17321;46.312;4.776;2023-02-21T17:10:02;38.88;;;25.63;;
30539;SDS011;17321;46.312;4.776;2023-02-21T17:12:29;36.72;;;24.75;;